createdAt,value
2018-07-15T00:02:17.057Z,100671.95
2018-07-15T00:04:45.114Z,100669.76
2018-07-15T00:07:13.196Z,100667.56
2018-07-15T00:09:41.286Z,100666.73
2018-07-15T00:12:09.447Z,100661.78
2018-07-15T00:14:37.530Z,100667.52
2018-07-15T00:17:05.671Z,100663.39
2018-07-15T00:19:33.747Z,100659.30
2018-07-15T00:22:01.844Z,100658.75
2018-07-15T00:24:29.901Z,100660.11
2018-07-15T00:26:57.967Z,100663.38
2018-07-15T00:29:26.027Z,100662.51
2018-07-15T00:31:54.097Z,100660.91
2018-07-15T00:34:22.162Z,100661.14
2018-07-15T00:36:50.234Z,100663.84
2018-07-15T00:39:18.323Z,100661.88
2018-07-15T00:41:46.437Z,100662.68
2018-07-15T00:44:14.482Z,100656.98
2018-07-15T00:46:42.547Z,100659.89
2018-07-15T00:49:10.615Z,100653.92
2018-07-15T00:51:38.695Z,100655.55
2018-07-15T00:54:06.760Z,100651.73
2018-07-15T00:56:35.479Z,100667.27
2018-07-15T00:59:03.607Z,100664.72
2018-07-15T01:01:31.746Z,100667.79
2018-07-15T01:03:59.895Z,100661.48
2018-07-15T01:06:28.068Z,100658.19
2018-07-15T01:08:56.236Z,100660.39
2018-07-15T01:11:24.455Z,100655.19
2018-07-15T01:13:52.596Z,100648.06
2018-07-15T01:16:20.656Z,100648.86
2018-07-15T01:18:48.720Z,100646.44
2018-07-15T01:21:16.777Z,100643.41
2018-07-15T01:23:44.856Z,100641.73
2018-07-15T01:26:12.916Z,100638.41
2018-07-15T01:28:41.110Z,100641.48
2018-07-15T01:31:09.291Z,100637.66
2018-07-15T01:33:37.500Z,100639.81
2018-07-15T01:36:05.697Z,100637.88
2018-07-15T01:38:33.905Z,100640.02
2018-07-15T01:41:02.071Z,100627.77
2018-07-15T01:43:30.280Z,100636.25
2018-07-15T01:45:58.448Z,100636.17
2018-07-15T01:48:26.672Z,100631.75
2018-07-15T01:50:54.877Z,100629.51
2018-07-15T01:53:23.080Z,100630.83
2018-07-15T01:55:51.262Z,100633.33
2018-07-15T01:58:19.452Z,100632.48
2018-07-15T02:00:47.632Z,100627.06
2018-07-15T02:03:15.920Z,100627.32
2018-07-15T02:05:44.105Z,100624.31
2018-07-15T02:08:12.296Z,100616.68
2018-07-15T02:10:41.009Z,100630.84
2018-07-15T02:13:09.236Z,100628.91
2018-07-15T02:15:37.436Z,100626.42
2018-07-15T02:20:32.855Z,100630.42
2018-07-15T02:23:01.077Z,100624.66
2018-07-15T02:25:29.234Z,100625.78
2018-07-15T02:27:57.427Z,100627.97
2018-07-15T02:30:25.648Z,100612.66
2018-07-15T02:32:53.847Z,100615.91
2018-07-15T02:35:22.093Z,100616.77
2018-07-15T02:37:50.922Z,100625.73
2018-07-15T02:40:19.093Z,100623.00
2018-07-15T02:42:47.390Z,100622.33
2018-07-15T02:45:15.676Z,100623.92
2018-07-15T02:47:43.862Z,100618.30
2018-07-15T02:50:12.312Z,100611.69
2018-07-15T02:52:40.681Z,100612.01
2018-07-15T02:55:08.880Z,100626.34
2018-07-15T02:57:37.073Z,100611.95
2018-07-15T03:00:05.552Z,100616.77
2018-07-15T03:02:33.730Z,100621.97
2018-07-15T03:05:01.917Z,100616.00
2018-07-15T03:07:30.110Z,100622.20
2018-07-15T03:09:58.393Z,100618.86
2018-07-15T03:12:26.597Z,100615.17
2018-07-15T03:14:54.859Z,100613.66
2018-07-15T03:17:23.044Z,100612.86
2018-07-15T03:19:51.003Z,100613.59
2018-07-15T03:22:19.263Z,100611.10
2018-07-15T03:24:47.432Z,100608.74
2018-07-15T03:27:15.624Z,100611.36
2018-07-15T03:29:43.804Z,100614.52
2018-07-15T03:32:11.987Z,100617.49
2018-07-15T03:34:40.174Z,100617.19
2018-07-15T03:37:08.408Z,100606.09
2018-07-15T03:39:36.596Z,100606.28
2018-07-15T03:42:05.645Z,100601.34
2018-07-15T03:44:33.828Z,100608.85
2018-07-15T03:47:02.033Z,100607.76
2018-07-15T03:49:30.241Z,100612.73
2018-07-15T03:51:58.423Z,100610.78
2018-07-15T03:54:26.621Z,100603.75
2018-07-15T03:56:54.807Z,100601.57
2018-07-15T03:59:23.007Z,100604.59
2018-07-15T04:01:51.266Z,100603.53
2018-07-15T04:04:19.457Z,100603.72
2018-07-15T04:06:47.653Z,100602.63
2018-07-15T04:09:16.380Z,100606.73
2018-07-15T04:11:44.580Z,100605.87
2018-07-15T04:14:12.789Z,100605.30
2018-07-15T04:16:40.975Z,100605.83
2018-07-15T04:19:09.155Z,100601.72
2018-07-15T04:21:37.345Z,100605.61
2018-07-15T04:24:05.616Z,100603.98
2018-07-15T04:26:33.783Z,100607.23
2018-07-15T04:29:01.958Z,100609.23
2018-07-15T04:31:30.138Z,100602.93
2018-07-15T04:33:58.332Z,100607.00
2018-07-15T04:36:26.539Z,100605.42
2018-07-15T04:38:54.752Z,100606.05
2018-07-15T04:41:22.928Z,100604.62
2018-07-15T04:43:51.183Z,100606.31
2018-07-15T04:46:19.343Z,100596.73
2018-07-15T04:48:47.531Z,100596.13
2018-07-15T04:51:15.732Z,100599.15
2018-07-15T04:53:44.070Z,100595.41
2018-07-15T04:56:12.241Z,100597.03
2018-07-15T04:58:40.424Z,100591.06
2018-07-15T05:01:08.576Z,100598.39
2018-07-15T05:03:36.767Z,100597.00
2018-07-15T05:06:05.131Z,100593.29
2018-07-15T05:08:33.325Z,100592.42
2018-07-15T05:11:01.519Z,100597.36
2018-07-15T05:13:29.747Z,100592.36
2018-07-15T05:15:57.936Z,100597.59
2018-07-15T05:18:32.442Z,100595.61
2018-07-15T05:21:00.535Z,100603.37
2018-07-15T05:23:28.732Z,100594.91
2018-07-15T05:25:56.946Z,100604.80
2018-07-15T05:28:25.165Z,100611.30
2018-07-15T05:30:53.453Z,100601.71
2018-07-15T05:33:21.671Z,100614.05
2018-07-15T05:35:49.877Z,100613.28
2018-07-15T05:38:18.057Z,100611.39
2018-07-15T05:40:46.249Z,100614.64
2018-07-15T05:43:14.435Z,100609.85
2018-07-15T05:45:42.632Z,100614.81
2018-07-15T05:48:10.849Z,100617.63
2018-07-15T05:50:39.043Z,100620.16
2018-07-15T05:55:34.563Z,100628.36
2018-07-15T05:58:02.775Z,100629.22
2018-07-15T06:00:30.940Z,100628.79
2018-07-15T06:02:59.099Z,100635.66
2018-07-15T06:05:27.256Z,100633.81
2018-07-15T06:07:55.430Z,100627.53
2018-07-15T06:10:23.644Z,100631.13
2018-07-15T06:12:51.816Z,100635.52
2018-07-15T06:15:20.016Z,100635.86
2018-07-15T06:17:48.205Z,100643.23
2018-07-15T06:20:16.405Z,100643.80
2018-07-15T06:22:44.652Z,100643.58
2018-07-15T06:25:12.763Z,100644.39
2018-07-15T06:27:40.952Z,100650.10
2018-07-15T06:30:09.129Z,100645.48
2018-07-15T06:32:37.280Z,100646.63
2018-07-15T06:35:06.019Z,100657.79
2018-07-15T06:37:34.087Z,100654.33
2018-07-15T06:40:02.169Z,100651.34
2018-07-15T06:42:30.248Z,100645.94
2018-07-15T06:44:59.352Z,100645.37
2018-07-15T06:47:27.409Z,100643.80
2018-07-15T06:49:55.490Z,100640.53
2018-07-15T06:52:23.586Z,100645.72
2018-07-15T06:54:51.762Z,100642.98
2018-07-15T06:57:19.915Z,100646.25
2018-07-15T06:59:48.031Z,100647.66
2018-07-15T07:02:16.084Z,100638.39
2018-07-15T07:04:44.163Z,100644.13
2018-07-15T07:07:12.265Z,100631.90
2018-07-15T07:09:40.295Z,100638.16
2018-07-15T07:12:08.806Z,100637.09
2018-07-15T07:14:36.884Z,100636.53
2018-07-15T07:17:04.940Z,100643.66
2018-07-15T07:19:33.011Z,100642.55
2018-07-15T07:22:04.853Z,100648.28
2018-07-15T07:24:32.962Z,100641.45
2018-07-15T07:27:01.213Z,100639.27
2018-07-15T07:29:29.458Z,100638.98
2018-07-15T07:31:57.689Z,100634.09
2018-07-15T07:34:25.902Z,100628.34
2018-07-15T07:36:54.186Z,100633.23
2018-07-15T07:39:22.470Z,100634.89
2018-07-15T07:41:50.644Z,100624.78
2018-07-15T07:44:19.866Z,100630.50
2018-07-15T07:46:48.124Z,100620.93
2018-07-15T07:49:16.304Z,100627.77
2018-07-15T07:51:46.915Z,100622.55
2018-07-15T07:54:16.640Z,100629.67
2018-07-15T07:56:44.873Z,100626.91
2018-07-15T07:59:13.402Z,100631.30
2018-07-15T08:01:41.665Z,100626.08
2018-07-15T08:04:09.878Z,100621.41
2018-07-15T08:06:38.158Z,100620.82
2018-07-15T08:09:06.982Z,100623.27
2018-07-15T08:11:35.286Z,100621.90
2018-07-15T08:14:03.518Z,100617.79
2018-07-15T08:16:31.861Z,100621.31
2018-07-15T08:19:02.645Z,100613.61
2018-07-15T08:21:31.017Z,100613.26
2018-07-15T08:23:59.289Z,100615.69
2018-07-15T08:26:27.671Z,100609.63
2018-07-15T08:28:55.915Z,100615.23
2018-07-15T08:31:24.149Z,100616.64
2018-07-15T08:33:52.366Z,100614.42
2018-07-15T08:36:20.588Z,100615.32
2018-07-15T08:38:48.811Z,100606.80
2018-07-15T08:41:17.024Z,100614.34
2018-07-15T08:43:45.196Z,100614.36
2018-07-15T08:46:13.487Z,100609.08
2018-07-15T08:48:41.680Z,100609.04
2018-07-15T08:51:09.878Z,100605.16
2018-07-15T08:53:38.028Z,100607.27
2018-07-15T08:56:06.108Z,100604.00
2018-07-15T08:58:34.172Z,100604.73
2018-07-15T09:01:02.314Z,100607.69
2018-07-15T09:03:30.352Z,100594.58
2018-07-15T09:05:58.448Z,100601.62
2018-07-15T09:08:26.515Z,100598.73
2018-07-15T09:10:54.711Z,100598.61
2018-07-15T09:13:22.760Z,100600.21
2018-07-15T09:15:50.865Z,100604.00
2018-07-15T09:18:18.967Z,100599.83
2018-07-15T09:20:47.025Z,100596.06
2018-07-15T09:23:15.103Z,100601.82
2018-07-15T09:25:43.189Z,100594.42
2018-07-15T09:28:11.252Z,100594.39
2018-07-15T09:30:39.323Z,100585.51
2018-07-15T09:33:07.411Z,100588.05
2018-07-15T09:35:35.539Z,100586.85
2018-07-15T09:38:03.572Z,100591.80
2018-07-15T09:40:31.653Z,100590.64
2018-07-15T09:42:59.699Z,100591.13
2018-07-15T09:45:27.816Z,100591.19
2018-07-15T09:47:55.912Z,100590.61
2018-07-15T09:50:24.014Z,100580.72
2018-07-15T09:52:52.091Z,100586.66
2018-07-15T09:55:20.188Z,100585.46
2018-07-15T09:57:48.279Z,100585.63
2018-07-15T10:00:21.695Z,100587.97
2018-07-15T10:02:49.787Z,100579.31
2018-07-15T10:05:17.847Z,100582.30
2018-07-15T10:07:45.955Z,100578.94
2018-07-15T10:10:14.206Z,100578.28
2018-07-15T10:12:42.298Z,100576.88
2018-07-15T10:15:10.467Z,100582.39
2018-07-15T10:17:38.572Z,100576.91
2018-07-15T10:20:06.716Z,100576.22
2018-07-15T10:22:34.786Z,100568.05
2018-07-15T10:25:02.852Z,100567.38
2018-07-15T10:27:30.941Z,100563.88
2018-07-15T10:29:59.007Z,100564.84
2018-07-15T10:32:27.099Z,100560.45
2018-07-15T10:34:55.160Z,100553.28
2018-07-15T10:37:23.264Z,100547.35
2018-07-15T10:39:51.444Z,100540.15
2018-07-15T10:42:19.625Z,100532.71
2018-07-15T10:44:47.988Z,100532.28
2018-07-15T10:47:16.206Z,100532.73
2018-07-15T10:49:44.396Z,100526.67
2018-07-15T10:52:12.586Z,100522.86
2018-07-15T10:54:40.776Z,100520.88
2018-07-15T10:57:08.965Z,100511.84
2018-07-15T10:59:37.155Z,100507.41
2018-07-15T11:02:05.404Z,100504.04
2018-07-15T11:04:33.607Z,100498.92
2018-07-15T11:07:01.801Z,100498.11
2018-07-15T11:09:29.991Z,100493.00
2018-07-15T11:11:58.184Z,100484.95
2018-07-15T11:14:26.376Z,100473.43
2018-07-15T11:16:54.579Z,100479.08
2018-07-15T11:19:22.751Z,100474.08
2018-07-15T11:21:50.995Z,100474.41
2018-07-15T11:24:19.188Z,100463.94
2018-07-15T11:26:47.496Z,100465.59
2018-07-15T11:29:15.695Z,100464.05
2018-07-15T11:31:43.881Z,100463.66
2018-07-15T11:34:12.076Z,100459.52
2018-07-15T11:36:40.300Z,100461.91
2018-07-15T11:39:09.465Z,100464.18
2018-07-15T11:41:37.603Z,100456.70
2018-07-15T11:44:05.988Z,100453.41
2018-07-15T11:46:34.180Z,100451.73
2018-07-15T11:49:02.476Z,100446.44
2018-07-15T11:51:30.683Z,100448.66
2018-07-15T11:53:58.874Z,100440.25
2018-07-15T11:56:27.060Z,100447.58
2018-07-15T11:58:55.243Z,100440.77
2018-07-15T12:01:23.416Z,100444.97
2018-07-15T12:03:51.554Z,100442.70
2018-07-15T12:06:19.619Z,100439.69
2018-07-15T12:08:47.689Z,100438.23
2018-07-15T12:11:15.765Z,100434.72
2018-07-15T12:13:43.854Z,100427.66
2018-07-15T12:16:11.907Z,100423.11
2018-07-15T12:18:39.971Z,100422.30
2018-07-15T12:21:08.040Z,100424.09
2018-07-15T12:23:36.120Z,100418.00
2018-07-15T12:26:04.178Z,100418.48
2018-07-15T12:28:32.258Z,100416.63
2018-07-15T12:31:00.323Z,100417.93
2018-07-15T12:33:28.403Z,100407.85
2018-07-15T12:35:56.452Z,100402.00
2018-07-15T12:38:24.570Z,100400.53
2018-07-15T12:40:52.649Z,100399.86
2018-07-15T12:43:20.788Z,100396.53
2018-07-15T12:45:48.777Z,100396.95
2018-07-15T12:48:16.887Z,100398.89
2018-07-15T12:50:44.940Z,100388.32
2018-07-15T12:53:13.017Z,100389.36
2018-07-15T12:55:41.058Z,100375.74
2018-07-15T12:58:09.127Z,100376.77
2018-07-15T13:00:37.207Z,100363.97
2018-07-15T13:03:05.277Z,100366.56
2018-07-15T13:05:33.344Z,100367.09
2018-07-15T13:08:01.432Z,100358.89
2018-07-15T13:10:30.490Z,100364.02
2018-07-15T13:12:58.607Z,100352.12
2018-07-15T13:15:26.735Z,100356.48
2018-07-15T13:17:54.858Z,100353.06
2018-07-15T13:20:23.040Z,100355.95
2018-07-15T13:22:51.240Z,100353.80
2018-07-15T13:25:19.458Z,100351.59
2018-07-15T13:27:47.646Z,100341.92
2018-07-15T13:30:15.844Z,100348.75
2018-07-15T13:32:44.023Z,100344.05
2018-07-15T13:35:12.232Z,100345.44
2018-07-15T13:37:40.422Z,100340.55
2018-07-15T13:40:08.741Z,100340.14
2018-07-15T13:42:37.018Z,100342.64
2018-07-15T13:45:05.214Z,100335.84
2018-07-15T13:47:33.399Z,100327.86
2018-07-15T13:50:01.598Z,100332.50
2018-07-15T13:52:29.775Z,100326.42
2018-07-15T13:54:57.985Z,100324.30
2018-07-15T13:57:26.184Z,100321.23
2018-07-15T13:59:54.380Z,100303.93
2018-07-15T14:02:22.568Z,100321.48
2018-07-15T14:04:50.735Z,100317.83
2018-07-15T14:07:19.108Z,100310.52
2018-07-15T14:09:47.308Z,100313.20
2018-07-15T14:12:15.475Z,100302.28
2018-07-15T14:14:43.663Z,100306.20
2018-07-15T14:17:11.865Z,100314.92
2018-07-15T14:19:40.075Z,100305.42
2018-07-15T14:22:08.236Z,100309.34
2018-07-15T14:24:36.438Z,100307.48
2018-07-15T14:27:04.671Z,100299.84
2018-07-15T14:29:32.862Z,100298.25
2018-07-15T14:32:01.028Z,100295.48
2018-07-15T14:34:29.238Z,100291.02
2018-07-15T14:36:57.430Z,100290.59
2018-07-15T14:39:34.231Z,100294.18
2018-07-15T14:42:02.715Z,100296.64
2018-07-15T14:44:30.938Z,100302.72
2018-07-15T14:46:59.121Z,100300.69
2018-07-15T14:49:27.412Z,100296.50
2018-07-15T14:51:56.193Z,100300.86
2018-07-15T14:54:25.214Z,100289.48
2018-07-15T14:56:53.571Z,100295.49
2018-07-15T14:59:22.128Z,100296.64
2018-07-15T15:01:50.386Z,100296.38
2018-07-15T15:04:18.709Z,100289.88
2018-07-15T15:06:47.040Z,100285.06
2018-07-15T15:09:15.425Z,100285.24
2018-07-15T15:11:44.184Z,100283.11
2018-07-15T15:14:12.784Z,100278.89
2018-07-15T15:16:40.967Z,100278.84
2018-07-15T15:19:09.187Z,100286.69
2018-07-15T15:21:37.372Z,100289.86
2018-07-15T15:24:07.767Z,100291.29
2018-07-15T15:26:35.957Z,100292.48
2018-07-15T15:29:04.169Z,100286.37
2018-07-15T15:31:32.360Z,100288.31
2018-07-15T15:34:00.598Z,100295.02
2018-07-15T15:36:28.799Z,100300.09
2018-07-15T15:38:56.991Z,100295.04
2018-07-15T15:41:25.760Z,100294.19
2018-07-15T15:43:54.054Z,100287.19
2018-07-15T15:46:23.632Z,100281.45
2018-07-15T15:48:51.960Z,100287.49
2018-07-15T15:51:20.234Z,100287.66
2018-07-15T15:53:48.590Z,100292.59
2018-07-15T15:56:16.832Z,100291.86
2018-07-15T15:58:45.099Z,100290.69
2018-07-15T16:01:13.363Z,100295.61
2018-07-15T16:03:41.880Z,100293.95
2018-07-15T16:06:10.146Z,100293.11
2018-07-15T16:08:38.436Z,100290.88
2018-07-15T16:11:06.677Z,100288.11
2018-07-15T16:13:34.926Z,100286.19
2018-07-15T16:16:03.208Z,100284.39
2018-07-15T16:18:31.451Z,100279.91
2018-07-15T16:20:59.775Z,100271.70
2018-07-15T16:23:28.033Z,100271.50
2018-07-15T16:25:56.313Z,100271.96
2018-07-15T16:28:24.590Z,100269.05
2018-07-15T16:30:52.964Z,100268.82
2018-07-15T16:33:21.218Z,100270.63
2018-07-15T16:35:49.508Z,100277.39
2018-07-15T16:38:17.738Z,100275.52
2018-07-15T16:40:45.986Z,100281.95
2018-07-15T16:43:14.221Z,100277.89
2018-07-15T16:45:46.922Z,100284.01
2018-07-15T16:48:19.032Z,100281.58
2018-07-15T16:50:47.262Z,100287.70
2018-07-15T16:53:15.742Z,100289.49
2018-07-15T16:55:44.097Z,100295.95
2018-07-15T16:58:12.650Z,100303.89
2018-07-15T17:00:41.055Z,100316.70
2018-07-15T17:03:09.356Z,100316.94
2018-07-15T17:05:37.549Z,100336.19
2018-07-15T17:08:10.354Z,100338.09
2018-07-15T17:10:38.629Z,100348.69
2018-07-15T17:13:06.969Z,100359.27
2018-07-15T17:15:35.240Z,100367.56
2018-07-15T17:18:03.520Z,100371.39
2018-07-15T17:20:31.774Z,100379.13
2018-07-15T17:23:00.002Z,100385.10
2018-07-15T17:25:28.360Z,100401.39
2018-07-15T17:27:56.667Z,100400.97
2018-07-15T17:30:25.185Z,100415.55
2018-07-15T17:32:53.415Z,100412.83
2018-07-15T17:35:21.657Z,100419.48
2018-07-15T17:37:49.873Z,100415.16
2018-07-15T17:40:18.036Z,100405.79
2018-07-15T17:42:46.179Z,100402.05
2018-07-15T17:45:14.260Z,100398.27
2018-07-15T17:47:42.401Z,100382.94
2018-07-15T17:50:10.512Z,100384.03
2018-07-15T17:52:38.713Z,100386.86
2018-07-15T17:55:06.918Z,100381.10
2018-07-15T17:57:35.057Z,100374.34
2018-07-15T18:00:03.442Z,100379.77
2018-07-15T18:02:31.500Z,100369.31
2018-07-15T18:04:59.642Z,100378.95
2018-07-15T18:07:27.649Z,100378.92
2018-07-15T18:09:55.731Z,100395.84
2018-07-15T18:12:23.851Z,100403.71
2018-07-15T18:14:51.930Z,100399.09
2018-07-15T18:17:20.007Z,100399.92
2018-07-15T18:19:48.073Z,100404.02
2018-07-15T18:22:16.215Z,100408.34
2018-07-15T18:24:44.271Z,100412.39
2018-07-15T18:27:12.392Z,100406.17
2018-07-15T18:29:40.499Z,100404.52
2018-07-15T18:32:08.563Z,100410.23
2018-07-15T18:34:36.633Z,100409.13
2018-07-15T18:37:06.792Z,100411.33
2018-07-15T18:39:34.864Z,100417.14
2018-07-15T18:42:02.942Z,100418.71
2018-07-15T18:44:31.079Z,100413.81
2018-07-15T18:46:59.195Z,100411.54
2018-07-15T18:49:27.489Z,100408.23
2018-07-15T18:51:56.237Z,100402.19
2018-07-15T18:54:24.368Z,100398.88
2018-07-15T18:56:52.625Z,100403.03
2018-07-15T18:59:21.345Z,100401.66
2018-07-15T19:01:50.400Z,100400.75
2018-07-15T19:04:18.644Z,100400.52
2018-07-15T19:06:47.828Z,100397.54
2018-07-15T19:09:15.919Z,100392.63
2018-07-15T19:11:44.074Z,100382.89
2018-07-15T19:14:12.239Z,100389.55
2018-07-15T19:16:40.500Z,100391.98
2018-07-15T19:19:08.620Z,100391.25
2018-07-15T19:21:36.761Z,100390.73
2018-07-15T19:24:04.879Z,100399.98
2018-07-15T19:26:33.048Z,100402.63
2018-07-15T19:29:01.157Z,100411.33
2018-07-15T19:31:29.377Z,100413.28
2018-07-15T19:33:58.319Z,100415.88
2018-07-15T19:36:29.180Z,100407.47
2018-07-15T19:38:57.832Z,100408.31
2018-07-15T19:41:26.012Z,100413.49
2018-07-15T19:43:54.110Z,100418.89
2018-07-15T19:46:22.179Z,100417.83
2018-07-15T19:48:50.226Z,100421.08
2018-07-15T19:51:18.317Z,100426.03
2018-07-15T19:53:46.392Z,100420.83
2018-07-15T19:56:14.567Z,100417.67
2018-07-15T19:58:42.693Z,100422.12
2018-07-15T20:01:12.078Z,100420.27
2018-07-15T20:03:40.285Z,100431.16
2018-07-15T20:06:08.481Z,100427.98
2018-07-15T20:08:36.667Z,100427.53
2018-07-15T20:11:04.955Z,100426.47
2018-07-15T20:13:33.131Z,100430.70
2018-07-15T20:16:01.343Z,100420.27
2018-07-15T20:18:29.539Z,100424.05
2018-07-15T20:20:57.839Z,100429.48
2018-07-15T20:23:25.983Z,100423.55
2018-07-15T20:25:54.220Z,100423.08
2018-07-15T20:28:22.419Z,100423.42
2018-07-15T20:30:50.603Z,100418.05
2018-07-15T20:33:18.785Z,100417.45
2018-07-15T20:35:47.036Z,100423.87
2018-07-15T20:38:15.252Z,100418.08
2018-07-15T20:40:43.468Z,100406.49
2018-07-15T20:43:12.284Z,100417.78
2018-07-15T20:45:40.472Z,100416.33
2018-07-15T20:48:08.785Z,100407.39
2018-07-15T20:50:36.987Z,100421.56
2018-07-15T20:53:05.817Z,100426.47
2018-07-15T20:55:34.021Z,100428.45
2018-07-15T20:58:02.233Z,100419.23
2018-07-15T21:00:30.431Z,100421.59
2018-07-15T21:02:58.616Z,100419.14
2018-07-15T21:05:26.849Z,100409.20
2018-07-15T21:07:55.041Z,100403.79
2018-07-15T21:10:23.220Z,100410.29
2018-07-15T21:12:51.405Z,100414.95
2018-07-15T21:15:19.623Z,100414.95
2018-07-15T21:17:47.856Z,100417.97
2018-07-15T21:20:16.137Z,100423.91
2018-07-15T21:22:44.298Z,100420.39
2018-07-15T21:25:13.117Z,100423.40
2018-07-15T21:27:41.297Z,100408.69
2018-07-15T21:30:09.498Z,100423.22
2018-07-15T21:32:37.706Z,100409.97
2018-07-15T21:35:05.986Z,100403.25
2018-07-15T21:37:34.201Z,100408.52
2018-07-15T21:40:02.364Z,100407.09
2018-07-15T21:42:30.567Z,100401.39
2018-07-15T21:44:58.748Z,100407.16
2018-07-15T21:47:26.977Z,100400.63
2018-07-15T21:49:55.151Z,100404.04
2018-07-15T21:52:23.368Z,100406.92
2018-07-15T21:54:51.552Z,100410.37
2018-07-15T21:57:19.741Z,100406.63
2018-07-15T21:59:47.922Z,100414.97
2018-07-15T22:02:16.128Z,100411.79
2018-07-15T22:04:44.412Z,100415.10
2018-07-15T22:07:24.043Z,100418.08
2018-07-15T22:09:58.737Z,100419.44
2018-07-15T22:12:26.972Z,100421.75
2018-07-15T22:14:55.188Z,100423.81
2018-07-15T22:17:23.410Z,100426.53
2018-07-15T22:19:51.586Z,100427.89
2018-07-15T22:22:20.734Z,100424.34
2018-07-15T22:24:48.915Z,100424.70
2018-07-15T22:27:17.116Z,100422.55
2018-07-15T22:29:45.336Z,100424.57
2018-07-15T22:32:13.518Z,100428.08
2018-07-15T22:34:41.702Z,100422.84
2018-07-15T22:37:09.888Z,100432.72
2018-07-15T22:39:38.075Z,100427.52
2018-07-15T22:42:06.409Z,100432.02
2018-07-15T22:44:34.595Z,100430.73
2018-07-15T22:47:02.787Z,100428.05
2018-07-15T22:49:30.975Z,100423.15
2018-07-15T22:51:59.969Z,100431.43
2018-07-15T22:54:28.194Z,100431.73
2018-07-15T22:56:56.392Z,100430.87
2018-07-15T22:59:24.596Z,100436.94
2018-07-15T23:01:52.799Z,100443.35
2018-07-15T23:04:37.084Z,100436.08
2018-07-15T23:07:05.289Z,100430.38
2018-07-15T23:09:33.462Z,100421.45
2018-07-15T23:12:01.652Z,100422.88
2018-07-15T23:14:29.849Z,100429.17
2018-07-15T23:16:58.069Z,100430.19
2018-07-15T23:19:26.230Z,100436.52
2018-07-15T23:21:54.441Z,100443.58
2018-07-15T23:24:22.888Z,100448.66
2018-07-15T23:26:51.064Z,100449.77
2018-07-15T23:29:19.240Z,100452.66
2018-07-15T23:31:47.441Z,100461.27
2018-07-15T23:34:15.639Z,100459.30
2018-07-15T23:36:43.837Z,100461.80
2018-07-15T23:39:12.030Z,100461.58
2018-07-15T23:41:40.224Z,100461.88
2018-07-15T23:44:08.390Z,100463.02
2018-07-15T23:46:36.592Z,100467.97
2018-07-15T23:49:04.831Z,100467.91
2018-07-15T23:51:33.019Z,100463.31
2018-07-15T23:54:01.230Z,100473.12
2018-07-15T23:56:29.416Z,100478.50
2018-07-15T23:58:57.627Z,100469.50
